sensor_id;sensor_type;location;lat;lon;timestamp;temperature;humidity
66670;DHT22;53568;52.164;4.472;2022-09-01T00:01:47;18.22;66.36
66670;DHT22;53568;52.164;4.472;2022-09-01T00:04:16;18.13;66.67
66670;DHT22;53568;52.164;4.472;2022-09-01T00:06:42;18.18;66.56
66670;DHT22;53568;52.164;4.472;2022-09-01T00:09:11;18.12;66.71
66670;DHT22;53568;52.164;4.472;2022-09-01T00:11:40;18.08;66.79
66670;DHT22;53568;52.164;4.472;2022-09-01T00:14:07;18.05;66.90
66670;DHT22;53568;52.164;4.472;2022-09-01T00:16:33;18.01;66.98
66670;DHT22;53568;52.164;4.472;2022-09-01T00:18:59;18.04;67.05
66670;DHT22;53568;52.164;4.472;2022-09-01T00:21:29;18.11;66.70
66670;DHT22;53568;52.164;4.472;2022-09-01T00:23:55;18.06;66.81
66670;DHT22;53568;52.164;4.472;2022-09-01T00:26:21;18.06;66.97
66670;DHT22;53568;52.164;4.472;2022-09-01T00:28:46;17.98;67.12
66670;DHT22;53568;52.164;4.472;2022-09-01T00:31:13;17.94;67.26
66670;DHT22;53568;52.164;4.472;2022-09-01T00:33:44;17.95;67.49
66670;DHT22;53568;52.164;4.472;2022-09-01T00:36:10;17.95;67.53
66670;DHT22;53568;52.164;4.472;2022-09-01T00:38:36;17.97;67.66
66670;DHT22;53568;52.164;4.472;2022-09-01T00:41:03;17.95;67.93
66670;DHT22;53568;52.164;4.472;2022-09-01T00:43:39;18.06;67.77
66670;DHT22;53568;52.164;4.472;2022-09-01T00:46:08;18.06;68.06
66670;DHT22;53568;52.164;4.472;2022-09-01T00:48:35;18.06;68.25
66670;DHT22;53568;52.164;4.472;2022-09-01T00:51:02;18.01;68.59
66670;DHT22;53568;52.164;4.472;2022-09-01T00:53:28;17.94;69.04
66670;DHT22;53568;52.164;4.472;2022-09-01T00:55:54;17.95;68.99
66670;DHT22;53568;52.164;4.472;2022-09-01T00:58:20;17.98;69.08
66670;DHT22;53568;52.164;4.472;2022-09-01T01:00:48;17.98;69.15
66670;DHT22;53568;52.164;4.472;2022-09-01T01:03:16;18.00;69.20
66670;DHT22;53568;52.164;4.472;2022-09-01T01:05:53;17.97;69.27
66670;DHT22;53568;52.164;4.472;2022-09-01T01:08:24;17.98;69.13
66670;DHT22;53568;52.164;4.472;2022-09-01T01:11:04;17.92;69.34
66670;DHT22;53568;52.164;4.472;2022-09-01T01:13:45;17.87;69.73
66670;DHT22;53568;52.164;4.472;2022-09-01T01:16:14;17.78;70.20
66670;DHT22;53568;52.164;4.472;2022-09-01T01:18:41;17.80;70.19
66670;DHT22;53568;52.164;4.472;2022-09-01T01:21:17;17.78;70.14
66670;DHT22;53568;52.164;4.472;2022-09-01T01:26:42;17.54;71.82
66670;DHT22;53568;52.164;4.472;2022-09-01T01:29:08;17.43;72.38
66670;DHT22;53568;52.164;4.472;2022-09-01T01:31:34;17.55;71.80
66670;DHT22;53568;52.164;4.472;2022-09-01T01:34:00;17.66;71.77
66670;DHT22;53568;52.164;4.472;2022-09-01T01:36:30;17.61;71.73
66670;DHT22;53568;52.164;4.472;2022-09-01T01:39:07;17.60;71.89
66670;DHT22;53568;52.164;4.472;2022-09-01T01:41:35;17.66;71.78
66670;DHT22;53568;52.164;4.472;2022-09-01T01:44:05;17.73;71.47
66670;DHT22;53568;52.164;4.472;2022-09-01T01:46:32;17.57;72.06
66670;DHT22;53568;52.164;4.472;2022-09-01T01:48:59;17.66;71.83
66670;DHT22;53568;52.164;4.472;2022-09-01T01:51:27;17.53;72.32
66670;DHT22;53568;52.164;4.472;2022-09-01T01:53:55;17.48;72.35
66670;DHT22;53568;52.164;4.472;2022-09-01T01:56:22;17.38;73.00
66670;DHT22;53568;52.164;4.472;2022-09-01T01:58:51;17.51;72.41
66670;DHT22;53568;52.164;4.472;2022-09-01T02:01:19;17.57;72.13
66670;DHT22;53568;52.164;4.472;2022-09-01T02:03:50;17.50;72.47
66670;DHT22;53568;52.164;4.472;2022-09-01T02:06:19;17.43;72.74
66670;DHT22;53568;52.164;4.472;2022-09-01T02:08:52;17.54;72.33
66670;DHT22;53568;52.164;4.472;2022-09-01T02:11:25;17.43;72.63
66670;DHT22;53568;52.164;4.472;2022-09-01T02:13:53;17.17;73.38
66670;DHT22;53568;52.164;4.472;2022-09-01T02:16:27;17.26;73.05
66670;DHT22;53568;52.164;4.472;2022-09-01T02:18:54;17.28;73.11
66670;DHT22;53568;52.164;4.472;2022-09-01T02:21:23;17.37;72.73
66670;DHT22;53568;52.164;4.472;2022-09-01T02:23:58;17.27;72.94
66670;DHT22;53568;52.164;4.472;2022-09-01T02:26:28;17.19;73.37
66670;DHT22;53568;52.164;4.472;2022-09-01T02:29:01;17.33;72.83
66670;DHT22;53568;52.164;4.472;2022-09-01T02:31:33;17.17;73.24
66670;DHT22;53568;52.164;4.472;2022-09-01T02:34:07;17.09;73.70
66670;DHT22;53568;52.164;4.472;2022-09-01T02:36:35;17.16;73.51
66670;DHT22;53568;52.164;4.472;2022-09-01T02:39:05;17.20;73.35
66670;DHT22;53568;52.164;4.472;2022-09-01T02:41:30;17.22;73.30
66670;DHT22;53568;52.164;4.472;2022-09-01T02:43:59;17.27;72.93
66670;DHT22;53568;52.164;4.472;2022-09-01T02:46:27;16.90;73.96
66670;DHT22;53568;52.164;4.472;2022-09-01T02:48:54;17.12;73.39
66670;DHT22;53568;52.164;4.472;2022-09-01T02:51:23;17.09;73.27
66670;DHT22;53568;52.164;4.472;2022-09-01T02:53:51;17.17;73.17
66670;DHT22;53568;52.164;4.472;2022-09-01T02:56:20;17.12;73.09
66670;DHT22;53568;52.164;4.472;2022-09-01T02:58:48;16.90;73.94
66670;DHT22;53568;52.164;4.472;2022-09-01T03:01:21;17.02;73.67
66670;DHT22;53568;52.164;4.472;2022-09-01T03:03:50;17.03;73.19
66670;DHT22;53568;52.164;4.472;2022-09-01T03:06:17;16.87;73.64
66670;DHT22;53568;52.164;4.472;2022-09-01T03:08:52;16.87;73.78
66670;DHT22;53568;52.164;4.472;2022-09-01T03:11:19;16.86;73.85
66670;DHT22;53568;52.164;4.472;2022-09-01T03:13:45;16.87;73.76
66670;DHT22;53568;52.164;4.472;2022-09-01T03:16:11;16.94;73.73
66670;DHT22;53568;52.164;4.472;2022-09-01T03:18:38;16.90;73.82
66670;DHT22;53568;52.164;4.472;2022-09-01T03:21:04;16.80;74.22
66670;DHT22;53568;52.164;4.472;2022-09-01T03:23:31;16.90;73.77
66670;DHT22;53568;52.164;4.472;2022-09-01T03:25:58;16.90;73.96
66670;DHT22;53568;52.164;4.472;2022-09-01T03:28:25;16.94;73.57
66670;DHT22;53568;52.164;4.472;2022-09-01T03:30:53;16.87;73.57
66670;DHT22;53568;52.164;4.472;2022-09-01T03:33:21;16.94;73.30
66670;DHT22;53568;52.164;4.472;2022-09-01T03:35:48;16.89;73.43
66670;DHT22;53568;52.164;4.472;2022-09-01T03:38:14;16.84;73.53
66670;DHT22;53568;52.164;4.472;2022-09-01T03:40:45;16.89;73.47
66670;DHT22;53568;52.164;4.472;2022-09-01T03:43:12;16.90;73.19
66670;DHT22;53568;52.164;4.472;2022-09-01T03:45:39;16.89;73.22
66670;DHT22;53568;52.164;4.472;2022-09-01T03:48:08;16.82;72.81
66670;DHT22;53568;52.164;4.472;2022-09-01T03:50:38;16.87;72.77
66670;DHT22;53568;52.164;4.472;2022-09-01T03:53:06;16.89;72.46
66670;DHT22;53568;52.164;4.472;2022-09-01T03:55:35;16.87;72.30
66670;DHT22;53568;52.164;4.472;2022-09-01T03:58:05;16.80;72.09
66670;DHT22;53568;52.164;4.472;2022-09-01T04:00:34;16.68;72.51
66670;DHT22;53568;52.164;4.472;2022-09-01T04:03:04;16.75;71.80
66670;DHT22;53568;52.164;4.472;2022-09-01T04:05:31;16.70;71.59
66670;DHT22;53568;52.164;4.472;2022-09-01T04:08:04;16.60;71.83
66670;DHT22;53568;52.164;4.472;2022-09-01T04:10:33;16.72;71.78
66670;DHT22;53568;52.164;4.472;2022-09-01T04:13:00;16.73;71.28
66670;DHT22;53568;52.164;4.472;2022-09-01T04:15:27;16.72;71.55
66670;DHT22;53568;52.164;4.472;2022-09-01T04:17:53;16.59;71.39
66670;DHT22;53568;52.164;4.472;2022-09-01T04:20:39;16.66;70.97
66670;DHT22;53568;52.164;4.472;2022-09-01T04:25:41;16.58;71.00
66670;DHT22;53568;52.164;4.472;2022-09-01T04:28:07;16.56;70.90
66670;DHT22;53568;52.164;4.472;2022-09-01T04:30:42;16.65;70.48
66670;DHT22;53568;52.164;4.472;2022-09-01T04:33:08;16.60;70.49
66670;DHT22;53568;52.164;4.472;2022-09-01T04:35:38;16.59;70.35
66670;DHT22;53568;52.164;4.472;2022-09-01T04:38:05;16.63;70.06
66670;DHT22;53568;52.164;4.472;2022-09-01T04:40:39;16.59;70.10
66670;DHT22;53568;52.164;4.472;2022-09-01T04:43:06;16.59;69.64
66670;DHT22;53568;52.164;4.472;2022-09-01T04:45:34;16.46;69.78
66670;DHT22;53568;52.164;4.472;2022-09-01T04:48:01;16.58;69.52
66670;DHT22;53568;52.164;4.472;2022-09-01T04:50:28;16.60;68.98
66670;DHT22;53568;52.164;4.472;2022-09-01T04:52:58;16.60;68.86
66670;DHT22;53568;52.164;4.472;2022-09-01T04:55:28;16.55;68.87
66670;DHT22;53568;52.164;4.472;2022-09-01T04:57:57;16.51;69.04
66670;DHT22;53568;52.164;4.472;2022-09-01T05:00:25;16.56;68.87
66670;DHT22;53568;52.164;4.472;2022-09-01T05:02:54;16.66;68.23
66670;DHT22;53568;52.164;4.472;2022-09-01T05:05:22;16.60;68.07
66670;DHT22;53568;52.164;4.472;2022-09-01T05:07:49;16.56;68.08
66670;DHT22;53568;52.164;4.472;2022-09-01T05:10:20;16.55;68.03
66670;DHT22;53568;52.164;4.472;2022-09-01T05:12:47;16.59;67.64
66670;DHT22;53568;52.164;4.472;2022-09-01T05:15:14;16.52;67.86
66670;DHT22;53568;52.164;4.472;2022-09-01T05:17:42;16.49;67.44
66670;DHT22;53568;52.164;4.472;2022-09-01T05:20:09;16.51;67.20
66670;DHT22;53568;52.164;4.472;2022-09-01T05:22:36;16.49;66.83
66670;DHT22;53568;52.164;4.472;2022-09-01T05:25:06;16.48;66.88
66670;DHT22;53568;52.164;4.472;2022-09-01T05:27:40;16.42;67.01
66670;DHT22;53568;52.164;4.472;2022-09-01T05:30:06;16.48;66.60
66670;DHT22;53568;52.164;4.472;2022-09-01T05:32:36;16.41;66.39
66670;DHT22;53568;52.164;4.472;2022-09-01T05:35:03;16.41;66.59
66670;DHT22;53568;52.164;4.472;2022-09-01T05:37:36;16.33;66.32
66670;DHT22;53568;52.164;4.472;2022-09-01T05:40:04;16.48;66.27
66670;DHT22;53568;52.164;4.472;2022-09-01T05:42:31;16.35;66.28
66670;DHT22;53568;52.164;4.472;2022-09-01T05:44:57;16.45;65.95
66670;DHT22;53568;52.164;4.472;2022-09-01T05:47:22;16.53;65.68
66670;DHT22;53568;52.164;4.472;2022-09-01T05:49:48;16.62;65.38
66670;DHT22;53568;52.164;4.472;2022-09-01T05:52:14;16.60;65.59
66670;DHT22;53568;52.164;4.472;2022-09-01T05:54:40;16.65;64.92
66670;DHT22;53568;52.164;4.472;2022-09-01T05:57:05;16.58;65.31
66670;DHT22;53568;52.164;4.472;2022-09-01T05:59:31;16.59;65.27
66670;DHT22;53568;52.164;4.472;2022-09-01T06:01:57;16.58;65.14
66670;DHT22;53568;52.164;4.472;2022-09-01T06:04:24;16.60;64.92
66670;DHT22;53568;52.164;4.472;2022-09-01T06:06:50;16.72;64.82
66670;DHT22;53568;52.164;4.472;2022-09-01T06:09:17;16.77;64.69
66670;DHT22;53568;52.164;4.472;2022-09-01T06:11:47;16.79;64.26
66670;DHT22;53568;52.164;4.472;2022-09-01T06:14:14;16.80;64.66
66670;DHT22;53568;52.164;4.472;2022-09-01T06:16:40;16.97;63.49
66670;DHT22;53568;52.164;4.472;2022-09-01T06:19:07;17.00;63.46
66670;DHT22;53568;52.164;4.472;2022-09-01T06:21:33;17.09;63.33
66670;DHT22;53568;52.164;4.472;2022-09-01T06:23:58;17.13;63.05
66670;DHT22;53568;52.164;4.472;2022-09-01T06:26:33;17.20;62.76
66670;DHT22;53568;52.164;4.472;2022-09-01T06:29:04;17.19;63.29
66670;DHT22;53568;52.164;4.472;2022-09-01T06:31:33;17.30;62.92
66670;DHT22;53568;52.164;4.472;2022-09-01T06:34:02;17.37;62.27
66670;DHT22;53568;52.164;4.472;2022-09-01T06:36:30;17.37;62.48
66670;DHT22;53568;52.164;4.472;2022-09-01T06:38:57;17.41;62.26
66670;DHT22;53568;52.164;4.472;2022-09-01T06:41:25;17.34;62.38
66670;DHT22;53568;52.164;4.472;2022-09-01T06:43:51;17.33;62.68
66670;DHT22;53568;52.164;4.472;2022-09-01T06:46:21;17.28;62.86
66670;DHT22;53568;52.164;4.472;2022-09-01T06:48:48;17.44;62.14
66670;DHT22;53568;52.164;4.472;2022-09-01T06:51:19;17.43;62.51
66670;DHT22;53568;52.164;4.472;2022-09-01T06:53:48;17.53;62.03
66670;DHT22;53568;52.164;4.472;2022-09-01T06:56:16;17.53;62.33
66670;DHT22;53568;52.164;4.472;2022-09-01T06:58:44;17.51;61.91
66670;DHT22;53568;52.164;4.472;2022-09-01T07:01:15;17.70;61.70
66670;DHT22;53568;52.164;4.472;2022-09-01T07:03:46;17.82;61.28
66670;DHT22;53568;52.164;4.472;2022-09-01T07:06:13;17.88;61.43
66670;DHT22;53568;52.164;4.472;2022-09-01T07:08:40;17.94;61.28
66670;DHT22;53568;52.164;4.472;2022-09-01T07:11:19;18.04;61.20
66670;DHT22;53568;52.164;4.472;2022-09-01T07:13:51;18.18;60.83
66670;DHT22;53568;52.164;4.472;2022-09-01T07:16:22;18.08;60.99
66670;DHT22;53568;52.164;4.472;2022-09-01T07:18:54;18.09;60.78
66670;DHT22;53568;52.164;4.472;2022-09-01T07:21:22;18.13;60.10
66670;DHT22;53568;52.164;4.472;2022-09-01T07:23:48;18.19;60.03
66670;DHT22;53568;52.164;4.472;2022-09-01T07:26:14;18.22;60.16
66670;DHT22;53568;52.164;4.472;2022-09-01T07:28:48;18.18;59.62
66670;DHT22;53568;52.164;4.472;2022-09-01T07:31:20;18.19;59.55
66670;DHT22;53568;52.164;4.472;2022-09-01T07:33:48;18.13;60.11
66670;DHT22;53568;52.164;4.472;2022-09-01T07:36:19;18.33;59.85
66670;DHT22;53568;52.164;4.472;2022-09-01T07:38:45;18.48;59.97
66670;DHT22;53568;52.164;4.472;2022-09-01T07:41:16;18.53;59.83
66670;DHT22;53568;52.164;4.472;2022-09-01T07:43:42;18.49;59.68
66670;DHT22;53568;52.164;4.472;2022-09-01T07:46:09;18.53;60.02
66670;DHT22;53568;52.164;4.472;2022-09-01T07:48:35;18.59;59.97
66670;DHT22;53568;52.164;4.472;2022-09-01T07:51:00;18.72;59.77
66670;DHT22;53568;52.164;4.472;2022-09-01T07:53:29;18.79;59.74
66670;DHT22;53568;52.164;4.472;2022-09-01T07:55:57;18.95;59.58
66670;DHT22;53568;52.164;4.472;2022-09-01T07:58:27;18.97;59.05
66670;DHT22;53568;52.164;4.472;2022-09-01T08:00:54;19.13;57.91
66670;DHT22;53568;52.164;4.472;2022-09-01T08:03:25;19.19;57.45
66670;DHT22;53568;52.164;4.472;2022-09-01T08:05:51;19.23;58.05
66670;DHT22;53568;52.164;4.472;2022-09-01T08:08:23;19.35;57.28
66670;DHT22;53568;52.164;4.472;2022-09-01T08:10:48;19.40;56.91
66670;DHT22;53568;52.164;4.472;2022-09-01T08:13:15;19.47;56.41
66670;DHT22;53568;52.164;4.472;2022-09-01T08:15:41;19.44;56.55
66670;DHT22;53568;52.164;4.472;2022-09-01T08:18:08;19.55;56.77
66670;DHT22;53568;52.164;4.472;2022-09-01T08:20:34;19.63;56.58
66670;DHT22;53568;52.164;4.472;2022-09-01T08:23:02;19.64;56.61
66670;DHT22;53568;52.164;4.472;2022-09-01T08:25:29;19.82;55.16
66670;DHT22;53568;52.164;4.472;2022-09-01T08:27:55;19.77;55.47
66670;DHT22;53568;52.164;4.472;2022-09-01T08:30:21;19.85;54.96
66670;DHT22;53568;52.164;4.472;2022-09-01T08:32:48;19.89;55.01
66670;DHT22;53568;52.164;4.472;2022-09-01T08:35:14;19.95;55.10
66670;DHT22;53568;52.164;4.472;2022-09-01T08:37:42;20.04;54.80
66670;DHT22;53568;52.164;4.472;2022-09-01T08:40:13;20.09;54.53
66670;DHT22;53568;52.164;4.472;2022-09-01T08:42:56;20.15;54.83
66670;DHT22;53568;52.164;4.472;2022-09-01T08:48:23;20.33;53.82
66670;DHT22;53568;52.164;4.472;2022-09-01T08:51:10;20.38;54.04
66670;DHT22;53568;52.164;4.472;2022-09-01T08:53:58;20.41;54.44
66670;DHT22;53568;52.164;4.472;2022-09-01T08:56:26;20.46;54.09
66670;DHT22;53568;52.164;4.472;2022-09-01T08:58:52;20.53;53.84
66670;DHT22;53568;52.164;4.472;2022-09-01T09:01:47;20.65;53.79
66670;DHT22;53568;52.164;4.472;2022-09-01T09:07:09;20.90;53.04
66670;DHT22;53568;52.164;4.472;2022-09-01T09:10:09;20.97;52.84
66670;DHT22;53568;52.164;4.472;2022-09-01T09:13:11;21.07;52.31
66670;DHT22;53568;52.164;4.472;2022-09-01T09:15:56;21.19;52.24
66670;DHT22;53568;52.164;4.472;2022-09-01T09:21:07;21.20;52.09
66670;DHT22;53568;52.164;4.472;2022-09-01T09:23:42;21.23;51.94
66670;DHT22;53568;52.164;4.472;2022-09-01T09:26:08;21.36;52.22
66670;DHT22;53568;52.164;4.472;2022-09-01T09:28:33;21.50;51.88
66670;DHT22;53568;52.164;4.472;2022-09-01T09:31:31;21.65;50.79
66670;DHT22;53568;52.164;4.472;2022-09-01T09:33:58;21.62;50.68
66670;DHT22;53568;52.164;4.472;2022-09-01T09:36:34;21.65;50.80
66670;DHT22;53568;52.164;4.472;2022-09-01T09:39:13;21.67;50.59
66670;DHT22;53568;52.164;4.472;2022-09-01T09:41:42;21.75;50.10
66670;DHT22;53568;52.164;4.472;2022-09-01T09:44:27;21.87;50.10
66670;DHT22;53568;52.164;4.472;2022-09-01T09:46:54;21.90;49.78
66670;DHT22;53568;52.164;4.472;2022-09-01T09:49:25;22.08;48.98
66670;DHT22;53568;52.164;4.472;2022-09-01T09:51:53;22.06;48.84
66670;DHT22;53568;52.164;4.472;2022-09-01T09:54:20;22.15;48.90
66670;DHT22;53568;52.164;4.472;2022-09-01T09:56:48;22.25;48.28
66670;DHT22;53568;52.164;4.472;2022-09-01T09:59:30;22.34;47.69
66670;DHT22;53568;52.164;4.472;2022-09-01T10:01:58;22.38;47.05
66670;DHT22;53568;52.164;4.472;2022-09-01T10:04:33;22.49;47.26
66670;DHT22;53568;52.164;4.472;2022-09-01T10:06:59;22.62;46.71
66670;DHT22;53568;52.164;4.472;2022-09-01T10:11:54;22.76;46.91
66670;DHT22;53568;52.164;4.472;2022-09-01T10:14:44;22.86;46.10
66670;DHT22;53568;52.164;4.472;2022-09-01T10:17:15;22.96;45.98
66670;DHT22;53568;52.164;4.472;2022-09-01T10:19:55;23.06;45.78
66670;DHT22;53568;52.164;4.472;2022-09-01T10:22:23;23.13;45.90
66670;DHT22;53568;52.164;4.472;2022-09-01T10:24:49;23.16;45.67
66670;DHT22;53568;52.164;4.472;2022-09-01T10:27:19;23.07;45.30
66670;DHT22;53568;52.164;4.472;2022-09-01T10:30:03;23.13;44.88
66670;DHT22;53568;52.164;4.472;2022-09-01T10:32:37;23.10;45.04
66670;DHT22;53568;52.164;4.472;2022-09-01T10:35:07;23.03;44.62
66670;DHT22;53568;52.164;4.472;2022-09-01T10:37:35;22.99;45.27
66670;DHT22;53568;52.164;4.472;2022-09-01T10:40:15;23.16;44.65
66670;DHT22;53568;52.164;4.472;2022-09-01T10:42:46;23.30;43.94
66670;DHT22;53568;52.164;4.472;2022-09-01T10:45:28;23.42;43.78
66670;DHT22;53568;52.164;4.472;2022-09-01T10:47:54;23.50;43.63
66670;DHT22;53568;52.164;4.472;2022-09-01T10:50:25;23.50;43.39
66670;DHT22;53568;52.164;4.472;2022-09-01T10:52:54;23.60;43.21
66670;DHT22;53568;52.164;4.472;2022-09-01T10:55:36;23.68;42.83
66670;DHT22;53568;52.164;4.472;2022-09-01T11:01:05;23.66;42.52
66670;DHT22;53568;52.164;4.472;2022-09-01T11:03:31;23.77;42.80
66670;DHT22;53568;52.164;4.472;2022-09-01T11:06:04;23.94;42.46
66670;DHT22;53568;52.164;4.472;2022-09-01T11:13:46;23.90;41.87
66670;DHT22;53568;52.164;4.472;2022-09-01T11:16:33;24.00;42.35
66670;DHT22;53568;52.164;4.472;2022-09-01T11:19:28;23.84;42.14
66670;DHT22;53568;52.164;4.472;2022-09-01T11:25:29;24.01;41.66
66670;DHT22;53568;52.164;4.472;2022-09-01T11:28:45;24.22;41.51
66670;DHT22;53568;52.164;4.472;2022-09-01T11:36:45;24.35;40.35
66670;DHT22;53568;52.164;4.472;2022-09-01T11:41:52;24.59;39.69
66670;DHT22;53568;52.164;4.472;2022-09-01T11:47:21;24.71;39.24
66670;DHT22;53568;52.164;4.472;2022-09-01T11:49:58;24.76;38.16
66670;DHT22;53568;52.164;4.472;2022-09-01T11:52:35;24.49;39.27
66670;DHT22;53568;52.164;4.472;2022-09-01T11:55:03;24.54;38.55
66670;DHT22;53568;52.164;4.472;2022-09-01T11:57:32;24.61;38.59
66670;DHT22;53568;52.164;4.472;2022-09-01T12:00:02;24.77;38.63
66670;DHT22;53568;52.164;4.472;2022-09-01T12:02:33;25.05;38.33
66670;DHT22;53568;52.164;4.472;2022-09-01T12:05:01;25.09;37.10
66670;DHT22;53568;52.164;4.472;2022-09-01T12:07:37;25.06;36.94
66670;DHT22;53568;52.164;4.472;2022-09-01T12:10:14;24.96;37.19
66670;DHT22;53568;52.164;4.472;2022-09-01T12:12:41;24.87;37.64
66670;DHT22;53568;52.164;4.472;2022-09-01T12:17:44;25.09;36.75
66670;DHT22;53568;52.164;4.472;2022-09-01T12:22:45;24.85;36.27
66670;DHT22;53568;52.164;4.472;2022-09-01T12:25:22;24.69;36.25
66670;DHT22;53568;52.164;4.472;2022-09-01T12:27:48;24.89;35.74
66670;DHT22;53568;52.164;4.472;2022-09-01T12:30:14;24.90;35.80
66670;DHT22;53568;52.164;4.472;2022-09-01T12:32:41;24.80;35.78
66670;DHT22;53568;52.164;4.472;2022-09-01T12:35:24;24.80;35.40
66670;DHT22;53568;52.164;4.472;2022-09-01T12:37:50;24.80;35.46
66670;DHT22;53568;52.164;4.472;2022-09-01T12:40:31;24.66;35.31
66670;DHT22;53568;52.164;4.472;2022-09-01T12:42:57;24.75;35.43
66670;DHT22;53568;52.164;4.472;2022-09-01T12:45:43;24.82;35.23
66670;DHT22;53568;52.164;4.472;2022-09-01T12:48:34;24.99;34.55
66670;DHT22;53568;52.164;4.472;2022-09-01T12:51:26;25.00;35.10
66670;DHT22;53568;52.164;4.472;2022-09-01T12:53:55;25.00;35.02
66670;DHT22;53568;52.164;4.472;2022-09-01T12:56:33;24.93;34.80
66670;DHT22;53568;52.164;4.472;2022-09-01T12:59:09;24.96;34.61
66670;DHT22;53568;52.164;4.472;2022-09-01T13:01:38;25.09;34.35
66670;DHT22;53568;52.164;4.472;2022-09-01T13:06:38;25.26;34.18
66670;DHT22;53568;52.164;4.472;2022-09-01T13:09:04;25.09;34.11
66670;DHT22;53568;52.164;4.472;2022-09-01T13:11:29;25.02;34.21
66670;DHT22;53568;52.164;4.472;2022-09-01T13:13:55;25.06;34.48
66670;DHT22;53568;52.164;4.472;2022-09-01T13:16:21;25.13;34.21
66670;DHT22;53568;52.164;4.472;2022-09-01T13:18:47;25.20;33.99
66670;DHT22;53568;52.164;4.472;2022-09-01T13:21:13;25.40;33.07
66670;DHT22;53568;52.164;4.472;2022-09-01T13:23:39;25.34;33.54
66670;DHT22;53568;52.164;4.472;2022-09-01T13:26:05;25.36;33.12
66670;DHT22;53568;52.164;4.472;2022-09-01T13:28:30;25.30;33.23
66670;DHT22;53568;52.164;4.472;2022-09-01T13:31:04;25.30;33.66
66670;DHT22;53568;52.164;4.472;2022-09-01T13:33:35;25.39;33.84
66670;DHT22;53568;52.164;4.472;2022-09-01T13:36:02;25.44;33.99
66670;DHT22;53568;52.164;4.472;2022-09-01T13:38:27;25.44;33.79
66670;DHT22;53568;52.164;4.472;2022-09-01T13:40:54;25.18;34.37
66670;DHT22;53568;52.164;4.472;2022-09-01T13:43:22;25.15;34.50
66670;DHT22;53568;52.164;4.472;2022-09-01T13:45:49;25.15;34.27
66670;DHT22;53568;52.164;4.472;2022-09-01T13:48:15;25.13;33.82
66670;DHT22;53568;52.164;4.472;2022-09-01T13:50:43;25.03;33.81
66670;DHT22;53568;52.164;4.472;2022-09-01T13:53:09;24.87;34.50
66670;DHT22;53568;52.164;4.472;2022-09-01T13:55:38;25.13;34.26
66670;DHT22;53568;52.164;4.472;2022-09-01T13:58:05;25.29;33.79
66670;DHT22;53568;52.164;4.472;2022-09-01T14:00:34;25.44;33.15
66670;DHT22;53568;52.164;4.472;2022-09-01T14:03:04;25.51;33.21
66670;DHT22;53568;52.164;4.472;2022-09-01T14:05:35;25.63;32.49
66670;DHT22;53568;52.164;4.472;2022-09-01T14:08:01;25.69;32.30
66670;DHT22;53568;52.164;4.472;2022-09-01T14:10:29;25.63;31.95
66670;DHT22;53568;52.164;4.472;2022-09-01T14:12:57;25.37;31.91
66670;DHT22;53568;52.164;4.472;2022-09-01T14:15:22;25.20;32.31
66670;DHT22;53568;52.164;4.472;2022-09-01T14:17:51;25.09;32.85
66670;DHT22;53568;52.164;4.472;2022-09-01T14:20:20;25.20;32.11
66670;DHT22;53568;52.164;4.472;2022-09-01T14:22:48;25.23;32.33
66670;DHT22;53568;52.164;4.472;2022-09-01T14:25:16;25.31;31.79
66670;DHT22;53568;52.164;4.472;2022-09-01T14:27:42;25.39;31.67
66670;DHT22;53568;52.164;4.472;2022-09-01T14:30:10;25.49;31.53
66670;DHT22;53568;52.164;4.472;2022-09-01T14:32:36;25.47;31.02
66670;DHT22;53568;52.164;4.472;2022-09-01T14:35:03;25.46;31.58
66670;DHT22;53568;52.164;4.472;2022-09-01T14:44:22;25.95;31.94
66670;DHT22;53568;52.164;4.472;2022-09-01T14:46:58;25.83;32.47
66670;DHT22;53568;52.164;4.472;2022-09-01T14:49:35;25.87;32.27
66670;DHT22;53568;52.164;4.472;2022-09-01T14:52:19;25.61;32.29
66670;DHT22;53568;52.164;4.472;2022-09-01T14:54:54;25.71;32.61
66670;DHT22;53568;52.164;4.472;2022-09-01T14:57:47;25.78;32.63
66670;DHT22;53568;52.164;4.472;2022-09-01T15:00:23;25.74;32.89
66670;DHT22;53568;52.164;4.472;2022-09-01T15:09:55;25.57;33.66
66670;DHT22;53568;52.164;4.472;2022-09-01T15:12:41;25.53;34.43
66670;DHT22;53568;52.164;4.472;2022-09-01T15:15:22;25.64;34.39
66670;DHT22;53568;52.164;4.472;2022-09-01T15:18:01;25.49;35.06
66670;DHT22;53568;52.164;4.472;2022-09-01T15:20:37;25.47;35.43
66670;DHT22;53568;52.164;4.472;2022-09-01T15:23:31;25.34;35.51
66670;DHT22;53568;52.164;4.472;2022-09-01T15:26:36;25.40;35.57
66670;DHT22;53568;52.164;4.472;2022-09-01T15:29:13;25.39;34.78
66670;DHT22;53568;52.164;4.472;2022-09-01T15:31:43;25.39;34.69
66670;DHT22;53568;52.164;4.472;2022-09-01T15:34:17;25.43;34.95
66670;DHT22;53568;52.164;4.472;2022-09-01T15:36:45;25.43;34.36
66670;DHT22;53568;52.164;4.472;2022-09-01T15:39:31;25.49;34.35
66670;DHT22;53568;52.164;4.472;2022-09-01T15:42:14;25.41;34.69
66670;DHT22;53568;52.164;4.472;2022-09-01T15:44:51;25.60;34.98
66670;DHT22;53568;52.164;4.472;2022-09-01T15:47:22;25.73;34.14
66670;DHT22;53568;52.164;4.472;2022-09-01T15:49:55;25.73;33.46
66670;DHT22;53568;52.164;4.472;2022-09-01T15:52:23;25.70;33.82
66670;DHT22;53568;52.164;4.472;2022-09-01T15:54:53;25.64;33.76
66670;DHT22;53568;52.164;4.472;2022-09-01T15:57:26;25.60;34.23
66670;DHT22;53568;52.164;4.472;2022-09-01T15:59:53;25.47;34.14
66670;DHT22;53568;52.164;4.472;2022-09-01T16:02:21;25.41;33.98
66670;DHT22;53568;52.164;4.472;2022-09-01T16:04:53;25.41;34.18
66670;DHT22;53568;52.164;4.472;2022-09-01T16:07:21;25.36;33.67
66670;DHT22;53568;52.164;4.472;2022-09-01T16:09:58;25.37;34.39
66670;DHT22;53568;52.164;4.472;2022-09-01T16:12:29;25.40;33.96
66670;DHT22;53568;52.164;4.472;2022-09-01T16:15:15;25.49;33.94
66670;DHT22;53568;52.164;4.472;2022-09-01T16:18:38;25.50;34.05
66670;DHT22;53568;52.164;4.472;2022-09-01T16:24:18;25.26;35.09
66670;DHT22;53568;52.164;4.472;2022-09-01T16:26:46;25.23;35.02
66670;DHT22;53568;52.164;4.472;2022-09-01T16:29:21;25.12;35.61
66670;DHT22;53568;52.164;4.472;2022-09-01T16:31:55;25.13;35.58
66670;DHT22;53568;52.164;4.472;2022-09-01T16:34:21;25.08;35.77
66670;DHT22;53568;52.164;4.472;2022-09-01T16:40:11;24.86;37.17
66670;DHT22;53568;52.164;4.472;2022-09-01T16:45:42;24.92;37.88
66670;DHT22;53568;52.164;4.472;2022-09-01T16:59:54;24.56;38.56
66670;DHT22;53568;52.164;4.472;2022-09-01T17:05:34;24.59;38.39
66670;DHT22;53568;52.164;4.472;2022-09-01T17:10:44;24.58;37.97
66670;DHT22;53568;52.164;4.472;2022-09-01T17:16:10;24.39;38.52
66670;DHT22;53568;52.164;4.472;2022-09-01T17:18:40;24.39;38.55
66670;DHT22;53568;52.164;4.472;2022-09-01T17:21:21;24.39;38.78
66670;DHT22;53568;52.164;4.472;2022-09-01T17:24:36;24.35;38.26